| time (UTC) | temp C | wind direction | speed KPH | gust KPH | rain 1hr cm | rain 24hr cm | rain mn cm | humidity % | barometer mb |
| 20260906203042 | 27 | 168 | 11.3 | 24.1 | 0.00 | 0.00 | 0.00 | 64 | 1014.9 |
| 20260906201558 | 27 | 176 | 12.9 | 22.5 | 0.00 | 0.00 | 0.00 | 66 | 1014.9 |
| 20260906200142 | 27 | 165 | 12.9 | 20.9 | 0.00 | 0.00 | 0.00 | 68 | 1014.9 |
| 20260906194542 | 27 | 156 | 8.0 | 17.7 | 0.00 | 0.00 | 0.00 | 68 | 1015.2 |
| 20260906193039 | 27 | 186 | 9.7 | 17.7 | 0.00 | 0.00 | 0.00 | 66 | 1015.3 |
| 20260906190005 | 27 | 157 | 6.4 | 14.5 | 0.00 | 0.00 | 0.00 | 69 | 1015.6 |
| 20260906184503 | 27 | 152 | 4.8 | 14.5 | 0.00 | 0.00 | 0.00 | 70 | 1015.8 |
| 20260906183059 | 26 | 148 | 6.4 | 19.3 | 0.00 | 0.00 | 0.00 | 70 | 1016.0 |
| 20260906181554 | 26 | 157 | 6.4 | 17.7 | 0.00 | 0.00 | 0.00 | 75 | 1016.1 |
| 20260906180151 | 25 | 158 | 9.7 | 24.1 | 0.00 | 0.00 | 0.00 | 76 | 1016.4 |
| 20260906174558 | 25 | 238 | 6.4 | 17.7 | 0.00 | 0.00 | 0.00 | 77 | 1016.7 |
| 20260906173052 | 25 | 164 | 9.7 | 19.3 | 0.00 | 0.00 | 0.00 | 77 | 1017.0 |
| 20260906171556 | 24 | 165 | 6.4 | 16.1 | 0.00 | 0.00 | 0.00 | 79 | 1017.2 |
| 20260906170149 | 23 | 159 | 9.7 | 16.1 | 0.00 | 0.00 | 0.00 | 81 | 1017.6 |
| 20260906164551 | 23 | 154 | 8.0 | 14.5 | 0.00 | 0.00 | 0.00 | 81 | 1017.8 |
| 20260906163056 | 22 | 214 | 8.0 | 16.1 | 0.00 | 0.00 | 0.00 | 81 | 1017.9 |
| 20260906161546 | 22 | 158 | 3.2 | 12.9 | 0.00 | 0.00 | 0.00 | 83 | 1017.9 |
| 20260906160143 | 21 | 176 | 3.2 | 12.9 | 0.00 | 0.00 | 0.00 | 86 | 1017.9 |
| 20260906154542 | 20 | 162 | 0.0 | 9.7 | 0.00 | 0.00 | 0.00 | 89 | 1017.8 |
| 20260906153042 | 20 | 158 | 0.0 | 3.2 | 0.00 | 0.00 | 0.00 | 89 | 1018.0 |
| 20260906151541 | 20 | 160 | 0.0 | 4.8 | 0.00 | 0.00 | 0.00 | 87 | 1018.0 |
| 20260906150139 | 20 | 158 | 0.0 | 11.3 | 0.00 | 0.00 | 0.00 | 89 | 1018.0 |
| 20260906144539 | 18 | 178 | 3.2 | 11.3 | 0.00 | 0.00 | 0.00 | 92 | 1017.9 |
| 20260906143038 | 17 | 185 | 4.8 | 9.7 | 0.00 | 0.00 | 0.00 | 95 | 1017.9 |
| 20260906141538 | 17 | 155 | 3.2 | 9.7 | 0.00 | 0.00 | 0.00 | 96 | 1017.9 |
| 20260906140134 | 17 | 152 | 0.0 | 9.7 | 0.00 | 0.00 | 0.00 | 96 | 1018.1 |
| 20260906134552 | 17 | 159 | 3.2 | 14.5 | 0.00 | 0.00 | 0.00 | 97 | 1018.2 |
| 20260906133054 | 17 | 166 | 6.4 | 14.5 | 0.00 | 0.00 | 0.00 | 96 | 1018.1 |
| 20260906131553 | 16 | 160 | 6.4 | 12.9 | 0.00 | 0.00 | 0.00 | 96 | 1018.0 |
| 20260906124550 | 16 | 164 | 3.2 | 12.9 | 0.00 | 0.00 | 0.00 | 97 | 1018.3 |
| 20260906123049 | 16 | 162 | 4.8 | 11.3 | 0.00 | 0.00 | 0.00 | 98 | 1018.2 |
| 20260906121554 | 16 | 192 | 0.0 | 12.9 | 0.00 | 0.00 | 0.00 | 98 | 1018.4 |
| 20260906120148 | 16 | 181 | 4.8 | 12.9 | 0.00 | 0.00 | 0.00 | 98 | 1017.8 |
| 20260906114547 | 16 | 147 | 3.2 | 11.3 | 0.00 | 0.00 | 0.00 | 98 | 1017.9 |
| 20260906113051 | 16 | 156 | 1.6 | 11.3 | 0.00 | 0.00 | 0.00 | 99 | 1018.1 |
| 20260906111604 | 16 | 67 | 0.0 | 0.0 | 0.00 | 0.00 | 0.00 | 99 | 1018.2 |
| 20260906110143 | 16 | 172 | 1.6 | 8.0 | 0.00 | 0.00 | 0.00 | 99 | 1017.7 |
| 20260906104541 | 16 | 134 | 0.0 | 0.0 | 0.00 | 0.00 | 0.00 | 99 | 1017.7 |
| 20260906103043 | 16 | 112 | 0.0 | 8.0 | 0.00 | 0.00 | 0.00 | 99 | 1017.3 |
| 20260906101540 | 16 | 165 | 0.0 | 8.0 | 0.00 | 0.00 | 0.00 | 99 | 1017.1 |
| 20260906100138 | 16 | 154 | 4.8 | 11.3 | 0.00 | 0.00 | 0.00 | 99 | 1016.9 |
| 20260906094602 | 16 | 158 | 0.0 | 8.0 | 0.00 | 0.00 | 0.00 | 99 | 1016.9 |
| 20260906093058 | 16 | 150 | 3.2 | 11.3 | 0.00 | 0.00 | 0.00 | 99 | 1016.9 |
| 20260906091603 | 16 | 133 | 3.2 | 14.5 | 0.00 | 0.00 | 0.00 | 99 | 1016.8 |
| 20260906090156 | 16 | 154 | 3.2 | 14.5 | 0.00 | 0.00 | 0.00 | 99 | 1016.9 |
| 20260906084555 | 16 | 167 | 3.2 | 9.7 | 0.00 | 0.00 | 0.00 | 99 | 1017.1 |
| 20260906083055 | 16 | 143 | 3.2 | 14.5 | 0.00 | 0.00 | 0.00 | 99 | 1017.0 |
| 20260906081553 | 16 | 196 | 6.4 | 14.5 | 0.00 | 0.00 | 0.00 | 99 | 1017.1 |
| 20260906080152 | 16 | 176 | 4.8 | 9.7 | 0.00 | 0.00 | 0.00 | 99 | 1017.1 |
| 20260906074553 | 16 | 154 | 0.0 | 4.8 | 0.00 | 0.00 | 0.00 | 98 | 1017.0 |
| 20260906073052 | 16 | 133 | 0.0 | 1.6 | 0.00 | 0.00 | 0.00 | 98 | 1017.0 |
| 20260906071559 | 16 | 145 | 0.0 | 6.4 | 0.00 | 0.00 | 0.00 | 98 | 1017.2 |
| 20260906070148 | 16 | 129 | 0.0 | 1.6 | 0.00 | 0.00 | 0.00 | 98 | 1017.3 |
| 20260906064550 | 16 | 143 | 0.0 | 3.2 | 0.00 | 0.00 | 0.00 | 97 | 1017.4 |
| 20260906063055 | 16 | 150 | 0.0 | 1.6 | 0.00 | 0.00 | 0.00 | 97 | 1017.5 |
| 20260906061548 | 17 | 145 | 0.0 | 1.6 | 0.00 | 0.00 | 0.00 | 96 | 1017.5 |
| 20260906060144 | 17 | 133 | 0.0 | 1.6 | 0.00 | 0.00 | 0.00 | 95 | 1017.6 |
| 20260906054646 | 17 | 124 | 0.0 | 4.8 | 0.00 | 0.00 | 0.00 | 95 | 1017.6 |
| 20260906053050 | 17 | 139 | 0.0 | 6.4 | 0.00 | 0.00 | 0.00 | 94 | 1017.5 |
| 20260906051541 | 17 | 164 | 4.8 | 8.0 | 0.00 | 0.00 | 0.00 | 93 | 1017.5 |
| 20260906050140 | 18 | 166 | 3.2 | 9.7 | 0.00 | 0.00 | 0.00 | 93 | 1017.6 |
| 20260906044555 | 18 | 143 | 3.2 | 9.7 | 0.00 | 0.00 | 0.00 | 94 | 1017.5 |
| 20260906043055 | 18 | 164 | 3.2 | 9.7 | 0.00 | 0.00 | 0.00 | 94 | 1017.6 |
| 20260906041557 | 18 | 154 | 0.0 | 4.8 | 0.00 | 0.00 | 0.00 | 94 | 1017.6 |
| 20260906040154 | 18 | 170 | 3.2 | 8.0 | 0.00 | 0.00 | 0.00 | 94 | 1017.2 |
| 20260906034553 | 18 | 155 | 4.8 | 14.5 | 0.00 | 0.00 | 0.00 | 94 | 1017.0 |
| 20260906033052 | 18 | 152 | 6.4 | 17.7 | 0.00 | 0.00 | 0.00 | 95 | 1017.0 |
| 20260906031550 | 17 | 174 | 4.8 | 12.9 | 0.00 | 0.00 | 0.00 | 95 | 1017.1 |
| 20260906030151 | 17 | 152 | 1.6 | 6.4 | 0.00 | 0.00 | 0.00 | 96 | 1017.3 |
| 20260906024600 | 17 | 143 | 0.0 | 3.2 | 0.00 | 0.00 | 0.00 | 96 | 1017.2 |
| 20260906023048 | 17 | 188 | 0.0 | 6.4 | 0.00 | 0.00 | 0.00 | 96 | 1017.1 |
| 20260906021546 | 17 | 155 | 1.6 | 6.4 | 0.00 | 0.00 | 0.00 | 96 | 1016.8 |
| 20260906020148 | 17 | 129 | 0.0 | 3.2 | 0.00 | 0.00 | 0.00 | 95 | 1016.7 |
| 20260906014559 | 18 | 147 | 0.0 | 3.2 | 0.00 | 0.00 | 0.00 | 94 | 1016.5 |
| 20260906013045 | 18 | 147 | 0.0 | 4.8 | 0.00 | 0.00 | 0.00 | 94 | 1016.4 |
| 20260906011544 | 18 | 133 | 0.0 | 6.4 | 0.00 | 0.00 | 0.00 | 93 | 1015.8 |
| 20260906010143 | 18 | 134 | 0.0 | 6.4 | 0.00 | 0.00 | 0.00 | 93 | 1015.7 |
| 20260906004543 | 18 | 138 | 3.2 | 9.7 | 0.00 | 0.00 | 0.00 | 92 | 1015.3 |
| 20260906003049 | 19 | 124 | 3.2 | 6.4 | 0.00 | 0.00 | 0.00 | 90 | 1015.4 |
| 20260906001539 | 19 | 129 | 1.6 | 6.4 | 0.00 | 0.00 | 0.00 | 90 | 1015.4 |
| 20260906000140 | 19 | 151 | 1.6 | 6.4 | 0.00 | 0.00 | 0.00 | 89 | 1015.4 |
| 20260905234603 | 20 | 145 | 1.6 | 6.4 | 0.00 | 0.00 | 0.00 | 88 | 1015.5 |
| 20260905231554 | 20 | 150 | 6.4 | 12.9 | 0.00 | 0.00 | 0.00 | 85 | 1015.6 |
| 20260905230153 | 20 | 141 | 6.4 | 11.3 | 0.00 | 0.00 | 0.00 | 84 | 1015.5 |
| 20260905224549 | 20 | 142 | 4.8 | 16.1 | 0.00 | 0.00 | 0.00 | 85 | 1015.5 |
| 20260905223048 | 20 | 158 | 6.4 | 17.7 | 0.00 | 0.00 | 0.00 | 86 | 1015.5 |
| 20260905221547 | 20 | 160 | 9.7 | 19.3 | 0.00 | 0.00 | 0.00 | 87 | 1015.2 |
| 20260905220146 | 20 | 148 | 4.8 | 16.1 | 0.00 | 0.00 | 0.00 | 88 | 1015.4 |
| 20260905214545 | 20 | 176 | 9.7 | 19.3 | 0.00 | 0.00 | 0.00 | 88 | 1015.5 |
| 20260905213046 | 19 | 124 | 6.4 | 14.5 | 0.00 | 0.00 | 0.00 | 89 | 1014.6 |
| 20260905211544 | 19 | 121 | 3.2 | 17.7 | 0.00 | 0.00 | 0.00 | 90 | 1015.4 |
| 20260905210142 | 19 | 144 | 6.4 | 12.9 | 0.00 | 0.00 | 0.00 | 87 | 1015.2 |
| 20260905204553 | 20 | 122 | 3.2 | 12.9 | 0.00 | 0.00 | 0.00 | 87 | 1015.2 |